Airfield :
LOGIN :

Register | Disclaimer

   EN    FR    IT 

 










Legend :    VFR   Marginal VFR   IFR   Intensive IFR   Very Intensive IFR
Visi :
Ceiling :
>= 8 km
>= 3000ft
5 to 8 km
1000 to 3000 ft
1500m to 5 km
500 to 1000 ft
800 to 1500m
200 to 500 ft
< 800m
< 200 ft
Symbols :   Thunderstorms  Fog  Heavy snow  Heavy precipitations  Wind > 20 kt
SIGMETs :     Misc.  Thunderstorms  Icing  Turbulence  Mountain Waves  Volcanic Ashes







- Airport Elevation : 286 ft
- IATA code : FFD


EGVA - RAF Fairford

CURRENT METAR :
  • 240326Z AUTO 00000KT M0200 M BKN000 02/02 A3052 RMK AO2 BKN V FEW SLP340 RVRNO VISNO RWY27 CHINO RWY27 $

EXPIRED METARs :
  • 240256Z AUTO 05003KT M0200 M SCT000 02/02 A3052 RMK AO2 SLP340 T00240024 58001 RVRNO VISNO RWY27 CHINO RWY27 $
  • 240242Z AUTO 00000KT M0200 M BKN000 03/03 A3052 RMK AO2 BKN V FEW SLP340 RVRNO VISNO RWY27 CHINO RWY27 $
  • 240232Z AUTO 05003KT 0600 M FEW000 03/03 A3053 RMK AO2 SLP344 RVRNO VISNO RWY27 CHINO RWY27 $
  • 240216Z AUTO 09003KT 1400 M CLR 02/02 A3052 RMK AO2 VIS 1400V4000 SLP340 RVRNO VISNO RWY27 CHINO RWY27 $
  • 240211Z AUTO 10003KT 3600 M CLR 02/02 A3053 RMK AO2 VIS 3000V4000 SLP344 RVRNO VISNO RWY27 CHINO RWY27 $
  • 240142Z AUTO 00000KT 2600 M CLR 04/04 A3053 RMK AO2 VIS 1000V2600 SLP343 RVRNO VISNO RWY27 CHINO RWY27 $
  • 240137Z AUTO 30004KT 1800 M CLR 04/04 A3053 RMK AO2 VIS 0400V1800 SLP343 RVRNO VISNO RWY27 CHINO RWY27 $
  • 240121Z AUTO 00000KT 0400 M CLR 04/04 A3052 RMK AO2 SLP340 RVRNO VISNO RWY27 CHINO RWY27 $
  • 240106Z AUTO 05003KT M0200 M CLR 03/03 A3053 RMK AO2 SLP344 RVRNO VISNO RWY27 CHINO RWY27 $
  • 240101Z AUTO 06003KT 0400 M CLR 04/04 A3053 RMK AO2 SLP344 RVRNO VISNO RWY27 CHINO RWY27 $
  • 240054Z AUTO 00000KT 0600 M CLR 04/04 A3053 RMK AO2 VIS 0400V1400 SLP344 RVRNO VISNO RWY27 CHINO RWY27 $
  • 240049Z AUTO 00000KT 0800 M CLR 05/05 A3053 RMK AO2 VIS 0800V1800 SLP343 RVRNO VISNO RWY27 CHINO RWY27 $

Expired Forecast.
No reported NOTAMs for that airfield.



MET'MAP, your aeronautical weather chart ! - Copyright ORBIFLY December 2007 - Disclaimer

ORBIFLY MET'MAP TEAM :

Programming & Development : Alexandra Zaïnal
Concept & Development : Baudouin d'Aumeries
Co-Development & Prog : Marc-Olivier Méhu
Technical & hardware support : Manuel Goepfert

Contact : metmap@orbifly.com




SOURCES & CREDITS :

   NOAA